Windermere, United Kingdom
Current Conditions -  °F | °C
As of 1:50 PM on Friday 24 Oct 2014 (Local Time) from EGNC Reporting Station
Broken Clouds Broken Clouds  
Wind Chill: 52°   Ceiling: 3600
Heat Index: 52°   Visibility: 6mi
Dew Point: 46°   Wind: 12mph
Humidity: 82%   Direction: 240°WSW
Pressure: 29.8"   Gusts: NA
Location:  54.38°N, 2.91°W
Report Text: EGNC 241250Z 24010KT 9999 SCT018 BKN036 11/08 Q1009
Loading
Personal Weather Stations






























Interactive Weather Map
Tropical Storm Tracking
New forecast layout! Learn more

10-Day Weather Forecast

Advertisements
Track Severe Weather on mobile